sensor_id;sensor_type;location;lat;lon;timestamp;P1;durP1;ratioP1;P2;durP2;ratioP2
29162;SDS011;20331;53.144;8.208;2023-12-22T00:04:20;14.25;;;1.98;;
29162;SDS011;20331;53.144;8.208;2023-12-22T00:09:42;11.75;;;1.92;;
29162;SDS011;20331;53.144;8.208;2023-12-22T00:16:02;11.60;;;1.63;;
29162;SDS011;20331;53.144;8.208;2023-12-22T00:22:22;13.23;;;1.50;;
29162;SDS011;20331;53.144;8.208;2023-12-22T00:28:42;9.68;;;1.90;;
29162;SDS011;20331;53.144;8.208;2023-12-22T00:35:02;12.80;;;1.52;;
29162;SDS011;20331;53.144;8.208;2023-12-22T00:40:26;9.13;;;1.60;;
29162;SDS011;20331;53.144;8.208;2023-12-22T00:45:47;16.77;;;2.33;;
29162;SDS011;20331;53.144;8.208;2023-12-22T00:52:07;18.50;;;2.45;;
29162;SDS011;20331;53.144;8.208;2023-12-22T00:58:02;19.77;;;3.45;;
29162;SDS011;20331;53.144;8.208;2023-12-22T01:03:23;21.45;;;2.65;;
29162;SDS011;20331;53.144;8.208;2023-12-22T01:08:45;16.65;;;2.83;;
29162;SDS011;20331;53.144;8.208;2023-12-22T01:14:11;22.58;;;2.97;;
29162;SDS011;20331;53.144;8.208;2023-12-22T01:19:34;19.80;;;2.80;;
29162;SDS011;20331;53.144;8.208;2023-12-22T01:24:56;28.88;;;2.95;;
29162;SDS011;20331;53.144;8.208;2023-12-22T01:30:18;22.45;;;2.90;;
29162;SDS011;20331;53.144;8.208;2023-12-22T01:36:00;18.98;;;2.30;;
29162;SDS011;20331;53.144;8.208;2023-12-22T01:41:21;15.52;;;2.40;;
29162;SDS011;20331;53.144;8.208;2023-12-22T01:47:42;23.25;;;2.90;;
29162;SDS011;20331;53.144;8.208;2023-12-22T01:53:04;13.77;;;1.92;;
29162;SDS011;20331;53.144;8.208;2023-12-22T01:58:26;14.95;;;2.30;;
29162;SDS011;20331;53.144;8.208;2023-12-22T02:03:50;15.73;;;1.92;;
29162;SDS011;20331;53.144;8.208;2023-12-22T02:09:16;18.02;;;2.60;;
29162;SDS011;20331;53.144;8.208;2023-12-22T02:14:37;21.20;;;3.30;;
29162;SDS011;20331;53.144;8.208;2023-12-22T02:20:02;20.50;;;2.53;;
29162;SDS011;20331;53.144;8.208;2023-12-22T02:25:25;22.02;;;2.42;;
29162;SDS011;20331;53.144;8.208;2023-12-22T02:30:57;19.35;;;2.60;;
29162;SDS011;20331;53.144;8.208;2023-12-22T02:36:48;13.18;;;2.53;;
29162;SDS011;20331;53.144;8.208;2023-12-22T02:42:14;15.03;;;2.93;;
29162;SDS011;20331;53.144;8.208;2023-12-22T02:47:36;20.60;;;2.92;;
29162;SDS011;20331;53.144;8.208;2023-12-22T02:52:58;17.75;;;1.75;;
29162;SDS011;20331;53.144;8.208;2023-12-22T02:58:20;14.95;;;2.17;;
29162;SDS011;20331;53.144;8.208;2023-12-22T03:03:41;22.02;;;2.55;;
29162;SDS011;20331;53.144;8.208;2023-12-22T03:09:03;21.85;;;2.90;;
29162;SDS011;20331;53.144;8.208;2023-12-22T03:14:25;28.20;;;3.55;;
29162;SDS011;20331;53.144;8.208;2023-12-22T03:19:46;21.45;;;3.05;;
29162;SDS011;20331;53.144;8.208;2023-12-22T03:25:08;23.35;;;2.70;;
29162;SDS011;20331;53.144;8.208;2023-12-22T03:30:30;19.55;;;2.75;;
29162;SDS011;20331;53.144;8.208;2023-12-22T03:35:51;17.02;;;2.53;;
29162;SDS011;20331;53.144;8.208;2023-12-22T03:41:13;15.38;;;2.45;;
29162;SDS011;20331;53.144;8.208;2023-12-22T03:46:34;18.42;;;2.28;;
29162;SDS011;20331;53.144;8.208;2023-12-22T03:51:56;17.30;;;2.45;;
29162;SDS011;20331;53.144;8.208;2023-12-22T03:58:02;22.77;;;3.25;;
29162;SDS011;20331;53.144;8.208;2023-12-22T04:03:25;19.55;;;3.17;;
29162;SDS011;20331;53.144;8.208;2023-12-22T04:08:47;22.33;;;2.85;;
29162;SDS011;20331;53.144;8.208;2023-12-22T04:14:09;25.35;;;3.55;;
29162;SDS011;20331;53.144;8.208;2023-12-22T04:19:31;23.23;;;3.63;;
29162;SDS011;20331;53.144;8.208;2023-12-22T04:24:53;30.08;;;3.70;;
29162;SDS011;20331;53.144;8.208;2023-12-22T04:30:14;25.10;;;3.67;;
29162;SDS011;20331;53.144;8.208;2023-12-22T04:35:36;31.98;;;3.78;;
29162;SDS011;20331;53.144;8.208;2023-12-22T04:40:58;23.70;;;2.92;;
29162;SDS011;20331;53.144;8.208;2023-12-22T04:46:20;18.00;;;2.85;;
29162;SDS011;20331;53.144;8.208;2023-12-22T04:51:42;28.63;;;3.85;;
29162;SDS011;20331;53.144;8.208;2023-12-22T04:57:03;16.25;;;3.03;;
29162;SDS011;20331;53.144;8.208;2023-12-22T05:02:25;19.55;;;2.50;;
29162;SDS011;20331;53.144;8.208;2023-12-22T05:07:47;10.93;;;1.60;;
29162;SDS011;20331;53.144;8.208;2023-12-22T05:13:09;15.07;;;1.60;;
29162;SDS011;20331;53.144;8.208;2023-12-22T05:18:31;10.48;;;1.77;;
29162;SDS011;20331;53.144;8.208;2023-12-22T05:23:52;14.25;;;2.00;;
29162;SDS011;20331;53.144;8.208;2023-12-22T05:29:14;6.90;;;1.40;;
29162;SDS011;20331;53.144;8.208;2023-12-22T05:34:36;9.05;;;1.20;;
29162;SDS011;20331;53.144;8.208;2023-12-22T05:39:58;15.25;;;1.65;;
29162;SDS011;20331;53.144;8.208;2023-12-22T05:45:19;14.25;;;1.77;;
29162;SDS011;20331;53.144;8.208;2023-12-22T05:50:41;18.50;;;2.15;;
29162;SDS011;20331;53.144;8.208;2023-12-22T05:56:16;18.73;;;2.15;;
29162;SDS011;20331;53.144;8.208;2023-12-22T06:01:39;19.85;;;2.63;;
29162;SDS011;20331;53.144;8.208;2023-12-22T06:07:01;20.20;;;2.78;;
29162;SDS011;20331;53.144;8.208;2023-12-22T06:12:22;22.17;;;2.97;;
29162;SDS011;20331;53.144;8.208;2023-12-22T06:17:46;33.05;;;3.65;;
29162;SDS011;20331;53.144;8.208;2023-12-22T06:23:08;27.65;;;3.40;;
29162;SDS011;20331;53.144;8.208;2023-12-22T06:28:30;26.13;;;3.53;;
29162;SDS011;20331;53.144;8.208;2023-12-22T06:33:51;31.85;;;4.07;;
29162;SDS011;20331;53.144;8.208;2023-12-22T06:39:14;28.90;;;3.88;;
29162;SDS011;20331;53.144;8.208;2023-12-22T06:45:35;31.27;;;4.32;;
29162;SDS011;20331;53.144;8.208;2023-12-22T06:51:55;29.98;;;4.07;;
29162;SDS011;20331;53.144;8.208;2023-12-22T06:58:15;48.92;;;5.07;;
29162;SDS011;20331;53.144;8.208;2023-12-22T07:11:17;27.10;;;3.78;;
29162;SDS011;20331;53.144;8.208;2023-12-22T07:17:37;29.55;;;3.60;;
29162;SDS011;20331;53.144;8.208;2023-12-22T07:23:58;23.05;;;3.60;;
29162;SDS011;20331;53.144;8.208;2023-12-22T07:30:20;32.70;;;3.63;;
29162;SDS011;20331;53.144;8.208;2023-12-22T07:36:40;25.80;;;3.33;;
29162;SDS011;20331;53.144;8.208;2023-12-22T07:43:01;19.75;;;3.33;;
29162;SDS011;20331;53.144;8.208;2023-12-22T07:49:22;30.75;;;3.97;;
29162;SDS011;20331;53.144;8.208;2023-12-22T07:55:43;30.80;;;4.20;;
29162;SDS011;20331;53.144;8.208;2023-12-22T08:02:04;28.33;;;4.30;;
29162;SDS011;20331;53.144;8.208;2023-12-22T08:08:24;24.15;;;3.70;;
29162;SDS011;20331;53.144;8.208;2023-12-22T08:14:44;24.20;;;3.90;;
29162;SDS011;20331;53.144;8.208;2023-12-22T08:21:05;21.27;;;3.92;;
29162;SDS011;20331;53.144;8.208;2023-12-22T08:27:28;28.35;;;4.00;;
29162;SDS011;20331;53.144;8.208;2023-12-22T08:33:48;22.83;;;3.30;;
29162;SDS011;20331;53.144;8.208;2023-12-22T08:40:09;20.50;;;3.28;;
29162;SDS011;20331;53.144;8.208;2023-12-22T08:46:30;24.50;;;3.30;;
29162;SDS011;20331;53.144;8.208;2023-12-22T08:52:50;25.33;;;3.38;;
29162;SDS011;20331;53.144;8.208;2023-12-22T08:59:11;23.98;;;3.15;;
29162;SDS011;20331;53.144;8.208;2023-12-22T09:05:31;17.60;;;2.88;;
29162;SDS011;20331;53.144;8.208;2023-12-22T09:11:52;21.98;;;2.78;;
29162;SDS011;20331;53.144;8.208;2023-12-22T09:18:12;12.00;;;1.77;;
29162;SDS011;20331;53.144;8.208;2023-12-22T09:24:32;10.35;;;1.60;;
29162;SDS011;20331;53.144;8.208;2023-12-22T09:30:52;14.63;;;1.55;;
29162;SDS011;20331;53.144;8.208;2023-12-22T09:37:13;12.68;;;2.03;;
29162;SDS011;20331;53.144;8.208;2023-12-22T09:43:36;18.70;;;2.58;;
29162;SDS011;20331;53.144;8.208;2023-12-22T09:49:57;15.55;;;2.38;;
29162;SDS011;20331;53.144;8.208;2023-12-22T09:56:18;20.40;;;3.13;;
29162;SDS011;20331;53.144;8.208;2023-12-22T10:02:48;24.23;;;3.35;;
29162;SDS011;20331;53.144;8.208;2023-12-22T10:09:09;23.55;;;3.65;;
29162;SDS011;20331;53.144;8.208;2023-12-22T10:15:29;20.35;;;3.20;;
29162;SDS011;20331;53.144;8.208;2023-12-22T10:21:49;18.38;;;2.65;;
29162;SDS011;20331;53.144;8.208;2023-12-22T10:28:10;26.67;;;3.20;;
29162;SDS011;20331;53.144;8.208;2023-12-22T10:34:30;25.33;;;3.55;;
29162;SDS011;20331;53.144;8.208;2023-12-22T10:40:51;23.50;;;3.00;;
29162;SDS011;20331;53.144;8.208;2023-12-22T10:47:11;26.42;;;3.47;;
29162;SDS011;20331;53.144;8.208;2023-12-22T10:53:32;23.83;;;2.97;;
29162;SDS011;20331;53.144;8.208;2023-12-22T10:59:52;22.65;;;3.22;;
29162;SDS011;20331;53.144;8.208;2023-12-22T11:06:13;34.63;;;3.63;;
29162;SDS011;20331;53.144;8.208;2023-12-22T11:12:35;26.42;;;3.65;;
29162;SDS011;20331;53.144;8.208;2023-12-22T11:18:56;27.65;;;3.42;;
29162;SDS011;20331;53.144;8.208;2023-12-22T11:25:17;20.63;;;2.88;;
29162;SDS011;20331;53.144;8.208;2023-12-22T11:31:38;25.88;;;3.22;;
29162;SDS011;20331;53.144;8.208;2023-12-22T11:38:00;26.05;;;2.78;;
29162;SDS011;20331;53.144;8.208;2023-12-22T11:44:21;15.40;;;2.30;;
29162;SDS011;20331;53.144;8.208;2023-12-22T11:50:44;18.55;;;2.22;;
29162;SDS011;20331;53.144;8.208;2023-12-22T11:57:04;20.05;;;2.60;;
29162;SDS011;20331;53.144;8.208;2023-12-22T12:10:12;16.63;;;2.30;;
29162;SDS011;20331;53.144;8.208;2023-12-22T12:16:34;23.45;;;2.60;;
29162;SDS011;20331;53.144;8.208;2023-12-22T12:22:54;16.90;;;1.92;;
29162;SDS011;20331;53.144;8.208;2023-12-22T12:29:15;14.10;;;1.85;;
29162;SDS011;20331;53.144;8.208;2023-12-22T12:35:39;16.92;;;1.95;;
29162;SDS011;20331;53.144;8.208;2023-12-22T12:42:00;17.27;;;2.42;;
29162;SDS011;20331;53.144;8.208;2023-12-22T12:48:21;22.33;;;4.40;;
29162;SDS011;20331;53.144;8.208;2023-12-22T12:54:42;20.90;;;3.35;;
29162;SDS011;20331;53.144;8.208;2023-12-22T13:01:10;20.80;;;4.15;;
29162;SDS011;20331;53.144;8.208;2023-12-22T13:07:30;15.65;;;2.92;;
29162;SDS011;20331;53.144;8.208;2023-12-22T13:14:03;19.20;;;4.65;;
29162;SDS011;20331;53.144;8.208;2023-12-22T13:20:24;21.60;;;3.53;;
29162;SDS011;20331;53.144;8.208;2023-12-22T13:26:45;23.08;;;6.82;;
29162;SDS011;20331;53.144;8.208;2023-12-22T13:33:12;26.00;;;4.80;;
29162;SDS011;20331;53.144;8.208;2023-12-22T13:39:35;15.45;;;2.60;;
29162;SDS011;20331;53.144;8.208;2023-12-22T13:45:57;18.88;;;4.53;;
29162;SDS011;20331;53.144;8.208;2023-12-22T13:52:24;18.98;;;2.88;;
29162;SDS011;20331;53.144;8.208;2023-12-22T13:58:47;27.48;;;6.03;;
29162;SDS011;20331;53.144;8.208;2023-12-22T14:05:07;23.52;;;5.28;;
29162;SDS011;20331;53.144;8.208;2023-12-22T14:11:30;15.65;;;3.20;;
29162;SDS011;20331;53.144;8.208;2023-12-22T14:17:57;21.50;;;3.90;;
29162;SDS011;20331;53.144;8.208;2023-12-22T14:24:17;23.10;;;4.57;;
29162;SDS011;20331;53.144;8.208;2023-12-22T14:30:37;10.40;;;2.25;;
29162;SDS011;20331;53.144;8.208;2023-12-22T14:36:58;13.07;;;2.90;;
29162;SDS011;20331;53.144;8.208;2023-12-22T14:43:18;8.63;;;1.60;;
29162;SDS011;20331;53.144;8.208;2023-12-22T14:49:39;6.57;;;2.00;;
29162;SDS011;20331;53.144;8.208;2023-12-22T14:55:59;5.35;;;0.90;;
29162;SDS011;20331;53.144;8.208;2023-12-22T15:02:19;8.68;;;1.90;;
29162;SDS011;20331;53.144;8.208;2023-12-22T15:08:40;16.65;;;8.15;;
29162;SDS011;20331;53.144;8.208;2023-12-22T15:15:00;10.32;;;4.80;;
29162;SDS011;20331;53.144;8.208;2023-12-22T15:20:22;19.10;;;8.48;;
29162;SDS011;20331;53.144;8.208;2023-12-22T15:25:44;6.13;;;1.40;;
29162;SDS011;20331;53.144;8.208;2023-12-22T15:31:07;10.00;;;2.97;;
29162;SDS011;20331;53.144;8.208;2023-12-22T15:36:29;6.63;;;1.55;;
29162;SDS011;20331;53.144;8.208;2023-12-22T15:41:52;3.17;;;1.35;;
29162;SDS011;20331;53.144;8.208;2023-12-22T15:47:13;5.50;;;1.33;;
29162;SDS011;20331;53.144;8.208;2023-12-22T15:52:35;6.30;;;1.85;;
29162;SDS011;20331;53.144;8.208;2023-12-22T15:57:57;5.30;;;1.60;;
29162;SDS011;20331;53.144;8.208;2023-12-22T16:03:18;10.60;;;1.13;;
29162;SDS011;20331;53.144;8.208;2023-12-22T16:08:40;5.18;;;2.00;;
29162;SDS011;20331;53.144;8.208;2023-12-22T16:14:02;8.57;;;2.60;;
29162;SDS011;20331;53.144;8.208;2023-12-22T16:19:23;8.40;;;1.80;;
29162;SDS011;20331;53.144;8.208;2023-12-22T16:24:45;9.00;;;2.30;;
29162;SDS011;20331;53.144;8.208;2023-12-22T16:30:07;7.85;;;2.00;;
29162;SDS011;20331;53.144;8.208;2023-12-22T16:35:29;14.07;;;2.25;;
29162;SDS011;20331;53.144;8.208;2023-12-22T16:40:50;10.15;;;2.50;;
29162;SDS011;20331;53.144;8.208;2023-12-22T16:46:12;10.60;;;2.42;;
29162;SDS011;20331;53.144;8.208;2023-12-22T16:51:34;18.58;;;6.97;;
29162;SDS011;20331;53.144;8.208;2023-12-22T16:56:57;5.65;;;2.30;;
29162;SDS011;20331;53.144;8.208;2023-12-22T17:02:18;8.85;;;2.30;;
29162;SDS011;20331;53.144;8.208;2023-12-22T17:07:53;7.07;;;2.92;;
29162;SDS011;20331;53.144;8.208;2023-12-22T17:13:16;6.00;;;1.63;;
29162;SDS011;20331;53.144;8.208;2023-12-22T17:18:37;4.97;;;1.60;;
29162;SDS011;20331;53.144;8.208;2023-12-22T17:24:00;9.73;;;1.75;;
29162;SDS011;20331;53.144;8.208;2023-12-22T17:29:22;9.05;;;1.75;;
29162;SDS011;20331;53.144;8.208;2023-12-22T17:34:44;8.43;;;2.47;;
29162;SDS011;20331;53.144;8.208;2023-12-22T17:40:06;8.70;;;2.50;;
29162;SDS011;20331;53.144;8.208;2023-12-22T17:45:28;13.20;;;1.70;;
29162;SDS011;20331;53.144;8.208;2023-12-22T17:50:50;6.03;;;1.60;;
29162;SDS011;20331;53.144;8.208;2023-12-22T17:56:12;9.73;;;1.40;;
29162;SDS011;20331;53.144;8.208;2023-12-22T18:01:33;4.43;;;0.80;;
29162;SDS011;20331;53.144;8.208;2023-12-22T18:06:55;9.73;;;0.98;;
29162;SDS011;20331;53.144;8.208;2023-12-22T18:12:19;4.72;;;1.02;;
29162;SDS011;20331;53.144;8.208;2023-12-22T18:17:42;4.00;;;1.10;;
29162;SDS011;20331;53.144;8.208;2023-12-22T18:23:03;6.43;;;1.35;;
29162;SDS011;20331;53.144;8.208;2023-12-22T18:28:25;8.18;;;1.80;;
29162;SDS011;20331;53.144;8.208;2023-12-22T18:33:47;5.93;;;1.70;;
29162;SDS011;20331;53.144;8.208;2023-12-22T18:39:09;7.90;;;2.22;;
29162;SDS011;20331;53.144;8.208;2023-12-22T18:44:33;7.07;;;2.35;;
29162;SDS011;20331;53.144;8.208;2023-12-22T18:49:54;6.00;;;1.73;;
29162;SDS011;20331;53.144;8.208;2023-12-22T18:55:16;6.63;;;1.80;;
29162;SDS011;20331;53.144;8.208;2023-12-22T19:00:38;10.02;;;2.58;;
29162;SDS011;20331;53.144;8.208;2023-12-22T19:06:00;4.93;;;1.80;;
29162;SDS011;20331;53.144;8.208;2023-12-22T19:11:22;8.23;;;1.30;;
29162;SDS011;20331;53.144;8.208;2023-12-22T19:16:45;6.72;;;1.00;;
29162;SDS011;20331;53.144;8.208;2023-12-22T19:22:07;7.43;;;0.82;;
29162;SDS011;20331;53.144;8.208;2023-12-22T19:27:29;6.60;;;1.50;;
29162;SDS011;20331;53.144;8.208;2023-12-22T19:32:52;6.03;;;1.30;;
29162;SDS011;20331;53.144;8.208;2023-12-22T19:38:14;7.40;;;2.28;;
29162;SDS011;20331;53.144;8.208;2023-12-22T19:43:39;18.60;;;2.38;;
29162;SDS011;20331;53.144;8.208;2023-12-22T19:49:01;5.95;;;1.48;;
29162;SDS011;20331;53.144;8.208;2023-12-22T19:54:23;11.05;;;2.25;;
29162;SDS011;20331;53.144;8.208;2023-12-22T19:59:44;6.13;;;1.08;;
29162;SDS011;20331;53.144;8.208;2023-12-22T20:05:06;7.60;;;1.10;;
29162;SDS011;20331;53.144;8.208;2023-12-22T20:10:29;9.30;;;1.30;;
29162;SDS011;20331;53.144;8.208;2023-12-22T20:15:51;7.07;;;1.33;;
29162;SDS011;20331;53.144;8.208;2023-12-22T20:21:13;6.68;;;1.13;;
29162;SDS011;20331;53.144;8.208;2023-12-22T20:26:35;7.78;;;1.33;;
29162;SDS011;20331;53.144;8.208;2023-12-22T20:31:57;9.90;;;1.08;;
29162;SDS011;20331;53.144;8.208;2023-12-22T20:37:19;10.15;;;1.35;;
29162;SDS011;20331;53.144;8.208;2023-12-22T20:42:41;8.90;;;1.05;;
29162;SDS011;20331;53.144;8.208;2023-12-22T20:48:04;11.50;;;1.42;;
29162;SDS011;20331;53.144;8.208;2023-12-22T20:53:26;4.55;;;1.33;;
29162;SDS011;20331;53.144;8.208;2023-12-22T20:58:47;8.02;;;1.65;;
29162;SDS011;20331;53.144;8.208;2023-12-22T21:04:09;12.10;;;2.85;;
29162;SDS011;20331;53.144;8.208;2023-12-22T21:09:33;14.57;;;2.33;;
29162;SDS011;20331;53.144;8.208;2023-12-22T21:14:55;14.60;;;3.00;;
29162;SDS011;20331;53.144;8.208;2023-12-22T21:20:17;20.60;;;3.80;;
29162;SDS011;20331;53.144;8.208;2023-12-22T21:25:39;15.27;;;4.30;;
29162;SDS011;20331;53.144;8.208;2023-12-22T21:31:00;16.05;;;3.83;;
29162;SDS011;20331;53.144;8.208;2023-12-22T21:36:28;26.20;;;5.47;;
29162;SDS011;20331;53.144;8.208;2023-12-22T21:41:51;43.63;;;11.60;;
29162;SDS011;20331;53.144;8.208;2023-12-22T21:47:14;14.68;;;2.67;;
29162;SDS011;20331;53.144;8.208;2023-12-22T21:52:35;19.52;;;5.65;;
29162;SDS011;20331;53.144;8.208;2023-12-22T21:57:57;19.80;;;3.50;;
29162;SDS011;20331;53.144;8.208;2023-12-22T22:03:22;13.85;;;2.65;;
29162;SDS011;20331;53.144;8.208;2023-12-22T22:08:46;14.07;;;3.00;;
29162;SDS011;20331;53.144;8.208;2023-12-22T22:14:07;17.67;;;4.32;;
29162;SDS011;20331;53.144;8.208;2023-12-22T22:19:46;23.35;;;2.45;;
29162;SDS011;20331;53.144;8.208;2023-12-22T22:25:08;10.80;;;1.67;;
29162;SDS011;20331;53.144;8.208;2023-12-22T22:30:29;11.18;;;1.70;;
29162;SDS011;20331;53.144;8.208;2023-12-22T22:35:51;10.50;;;2.78;;
29162;SDS011;20331;53.144;8.208;2023-12-22T22:41:13;16.23;;;2.83;;
29162;SDS011;20331;53.144;8.208;2023-12-22T22:46:34;10.93;;;2.40;;
29162;SDS011;20331;53.144;8.208;2023-12-22T22:51:56;16.60;;;3.28;;
29162;SDS011;20331;53.144;8.208;2023-12-22T22:57:18;17.23;;;2.55;;
29162;SDS011;20331;53.144;8.208;2023-12-22T23:02:39;14.30;;;2.85;;
29162;SDS011;20331;53.144;8.208;2023-12-22T23:08:01;14.05;;;1.80;;
29162;SDS011;20331;53.144;8.208;2023-12-22T23:13:23;15.05;;;1.98;;
29162;SDS011;20331;53.144;8.208;2023-12-22T23:18:45;12.63;;;2.08;;
29162;SDS011;20331;53.144;8.208;2023-12-22T23:24:07;10.85;;;2.38;;
29162;SDS011;20331;53.144;8.208;2023-12-22T23:29:28;17.20;;;2.58;;
29162;SDS011;20331;53.144;8.208;2023-12-22T23:34:50;14.10;;;2.40;;
29162;SDS011;20331;53.144;8.208;2023-12-22T23:40:13;11.60;;;1.90;;
29162;SDS011;20331;53.144;8.208;2023-12-22T23:45:35;13.63;;;2.97;;
29162;SDS011;20331;53.144;8.208;2023-12-22T23:51:00;19.15;;;2.88;;
29162;SDS011;20331;53.144;8.208;2023-12-22T23:56:21;14.60;;;2.63;;
